Time;durP1;ratioP1;P1;durP2;ratioP2;P2;SDS_P1;SDS_P2;PMS_P1;PMS_P2;Temp;Humidity;BMP_temperature;BMP_pressure;BME280_temperature;BME280_humidity;BME280_pressure;Samples;Min_cycle;Max_cycle;Signal;HPM_P1;HPM_P2
2023/04/21 00:01:55;;;;;;;21.47;11.77;;;;;;;10.93;94.54;64094.69;5052157;28;20196;-57
2023/04/21 00:04:20;;;;;;;20.87;11.93;;;;;;;11.08;96.18;64108.59;5051893;28;20221;-58
2023/04/21 00:06:46;;;;;;;19.80;12.53;;;;;;;11.00;96.73;64099.84;5052034;28;20648;-57
2023/04/21 00:09:11;;;;;;;18.93;12.17;;;;;;;11.03;96.17;64103.09;5052017;28;20220;-57
2023/04/21 00:11:37;;;;;;;15.70;11.17;;;;;;;10.86;97.06;64087.03;5051960;28;20679;-57
2023/04/21 00:14:02;;;;;;;19.37;12.03;;;;;;;10.73;98.10;64068.28;5051702;28;20224;-57
2023/04/21 00:16:28;;;;;;;19.73;11.40;;;;;;;10.70;97.48;64064.47;5051843;28;20192;-57
2023/04/21 00:18:53;;;;;;;21.77;12.60;;;;;;;10.71;97.75;64068.63;5052177;28;20706;-57
2023/04/21 00:21:19;;;;;;;15.50;10.47;;;;;;;10.61;95.11;64057.69;5051774;28;20192;-57
2023/04/21 00:23:46;;;;;;;11.73;8.13;;;;;;;10.58;92.48;64054.41;5051972;28;20556;-58
2023/04/21 00:26:11;;;;;;;18.10;11.40;;;;;;;10.64;96.87;64063.50;5051701;28;20197;-56
2023/04/21 00:28:37;;;;;;;16.10;11.37;;;;;;;10.74;95.09;64071.38;5051706;28;20213;-56
2023/04/21 00:31:03;;;;;;;18.43;12.30;;;;;;;10.80;97.25;64080.47;5051779;28;20652;-56
2023/04/21 00:33:28;;;;;;;17.43;12.50;;;;;;;10.78;97.45;64078.28;5051670;28;20226;-57
2023/04/21 00:35:55;;;;;;;17.37;12.00;;;;;;;10.69;99.26;64065.88;5051597;28;20193;-57
2023/04/21 00:38:21;;;;;;;23.93;14.10;;;;;;;10.45;100.00;64040.16;5051267;28;20300;-57
2023/04/21 00:40:46;;;;;;;18.60;13.07;;;;;;;10.27;100.00;64019.91;5033605;28;20194;-57
2023/04/21 00:43:11;;;;;;;17.77;12.27;;;;;;;10.46;100.00;64040.72;5050863;28;20215;-57
2023/04/21 00:45:37;;;;;;;19.87;13.63;;;;;;;10.25;100.00;64017.72;5051605;28;20644;-58
2023/04/21 00:48:02;;;;;;;19.93;12.87;;;;;;;10.22;100.00;64016.97;5051510;28;20217;-56
2023/04/21 00:50:28;;;;;;;21.83;13.37;;;;;;;10.21;100.00;64013.34;5051309;28;20272;-56
2023/04/21 00:52:55;;;;;;;18.20;13.07;;;;;;;10.22;100.00;64016.97;5051287;28;20218;-56
2023/04/21 00:55:20;;;;;;;21.13;13.17;;;;;;;10.19;100.00;64011.72;5051076;28;20237;-58
2023/04/21 00:57:47;;;;;;;20.10;14.13;;;;;;;10.23;100.00;64016.09;5050903;28;20224;-58
2023/04/21 01:00:14;;;;;;;24.70;13.40;;;;;;;10.17;100.00;64011.50;5051084;28;20729;-60
2023/04/21 01:02:40;;;;;;;19.33;12.23;;;;;;;10.16;100.00;64007.91;5050993;28;20196;-58
2023/04/21 01:05:07;;;;;;;19.23;12.80;;;;;;;10.24;100.00;64016.66;5051283;28;20221;-60
2023/04/21 01:07:33;;;;;;;22.27;13.87;;;;;;;10.28;100.00;64024.06;5051085;28;20277;-59
2023/04/21 01:09:59;;;;;;;17.70;12.47;;;;;;;10.06;100.00;63999.97;5051157;28;20228;-58
2023/04/21 01:12:24;;;;;;;20.90;13.03;;;;;;;10.02;100.00;63996.16;5051294;28;20200;-58
2023/04/21 01:14:50;;;;;;;20.20;13.73;;;;;;;10.05;100.00;63999.44;5051106;28;20221;-56
2023/04/21 01:17:17;;;;;;;18.47;13.03;;;;;;;9.94;100.00;63987.41;5051071;28;20189;-56
2023/04/21 01:19:43;;;;;;;18.57;12.20;;;;;;;9.85;100.00;63972.53;5033632;28;20216;-55
2023/04/21 01:22:10;;;;;;;18.40;12.33;;;;;;;9.92;100.00;63982.69;5033156;28;20659;-55
2023/04/21 01:24:47;;;;;;;20.80;12.23;;;;;;;9.82;100.00;63971.78;5050757;28;20640;-56
2023/04/21 01:27:18;;;;;;;15.93;12.17;;;;;;;9.81;100.00;63973.19;5050729;28;20651;-56
2023/04/21 01:29:45;;;;;;;19.57;12.93;;;;;;;9.80;100.00;63969.03;5050692;28;20221;-56
2023/04/21 01:32:14;;;;;;;13.97;9.27;;;;;;;9.76;97.40;63967.72;5050916;28;20193;-57
2023/04/21 01:34:41;;;;;;;16.27;10.70;;;;;;;9.82;100.00;63974.28;5050705;28;20695;-55
2023/04/21 01:37:12;;;;;;;15.63;10.97;;;;;;;9.97;100.00;63988.19;5050706;28;20284;-56
2023/04/21 01:39:50;;;;;;;19.07;11.80;;;;;;;9.84;100.00;63973.41;5032670;28;20596;-55
2023/04/21 01:42:15;;;;;;;17.53;12.13;;;;;;;9.85;100.00;63972.00;5050854;28;20604;-55
2023/04/21 01:44:41;;;;;;;16.27;11.50;;;;;;;9.71;100.00;63959.75;5050592;28;20201;-55
2023/04/21 01:47:07;;;;;;;20.83;12.30;;;;;;;9.56;100.00;63942.78;5050673;28;20225;-56
2023/04/21 01:49:32;;;;;;;15.53;11.30;;;;;;;9.45;100.00;63933.84;5032900;28;20688;-55
2023/04/21 01:51:58;;;;;;;17.27;11.50;;;;;;;9.28;100.00;63910.75;5050295;28;20710;-56
2023/04/21 01:54:23;;;;;;;15.80;12.03;;;;;;;9.29;100.00;63916.34;5049531;28;20307;-58
2023/04/21 01:56:48;;;;;;;18.80;11.73;;;;;;;9.48;100.00;63934.59;5050580;28;20199;-58
2023/04/21 01:59:14;;;;;;;15.43;11.17;;;;;;;9.51;100.00;63939.84;5050146;28;20210;-58
2023/04/21 02:01:39;;;;;;;14.53;10.73;;;;;;;9.57;100.00;63946.94;5050195;28;20208;-58
2023/04/21 02:04:05;;;;;;;13.53;10.30;;;;;;;9.54;100.00;63940.59;5050293;28;20221;-57
2023/04/21 02:06:30;;;;;;;14.73;10.17;;;;;;;9.62;100.00;63949.91;5050274;28;20188;-56
2023/04/21 02:08:57;;;;;;;13.57;8.67;;;;;;;9.70;100.00;63961.16;5050315;28;20772;-58
2023/04/21 02:11:24;;;;;;;14.47;9.70;;;;;;;9.81;99.88;63972.66;5050283;28;20186;-57
2023/04/21 02:13:50;;;;;;;12.50;8.60;;;;;;;9.81;100.00;63970.69;5050233;28;20298;-58
2023/04/21 02:16:17;;;;;;;12.30;9.33;;;;;;;9.88;99.34;63980.28;5032246;28;20648;-58
2023/04/21 02:18:43;;;;;;;11.17;8.53;;;;;;;9.77;96.19;63965.75;5049932;28;20213;-58
2023/04/21 02:21:08;;;;;;;13.50;8.33;;;;;;;9.82;97.40;63974.28;5050374;28;20236;-58
2023/04/21 02:23:34;;;;;;;13.50;8.50;;;;;;;9.84;95.47;63975.91;5050117;28;20707;-56
2023/04/21 02:25:59;;;;;;;10.00;7.83;;;;;;;9.78;96.28;63966.84;5049962;28;20177;-57
2023/04/21 02:28:25;;;;;;;10.43;7.93;;;;;;;9.81;93.61;63973.19;5049977;28;20260;-58
2023/04/21 02:30:51;;;;;;;15.73;7.37;;;;;;;9.75;92.63;63964.13;5050012;28;20185;-57
2023/04/21 02:33:16;;;;;;;10.37;6.97;;;;;;;9.73;93.78;63959.41;5050003;28;20680;-57
2023/04/21 02:35:41;;;;;;;8.97;7.13;;;;;;;9.65;93.31;63953.19;5050004;28;20631;-57
2023/04/21 02:38:07;;;;;;;10.23;6.53;;;;;;;9.61;91.84;63945.75;5050040;28;20213;-57
2023/04/21 02:40:33;;;;;;;11.50;7.03;;;;;;;9.72;91.15;63960.84;5050062;28;20178;-57
2023/04/21 02:42:58;;;;;;;11.07;6.90;;;;;;;9.88;91.08;63980.84;5032051;28;20216;-57
2023/04/21 02:45:24;;;;;;;9.77;6.00;;;;;;;9.75;89.68;63966.63;5049944;28;20189;-57
2023/04/21 02:47:50;;;;;;;10.93;5.90;;;;;;;9.72;89.94;63962.78;5049775;28;20213;-57
2023/04/21 02:50:15;;;;;;;7.67;5.40;;;;;;;9.70;89.72;63958.66;5049795;28;20237;-57
2023/04/21 02:52:41;;;;;;;6.77;5.30;;;;;;;9.75;88.92;63963.56;5049952;28;20186;-58
2023/04/21 02:55:06;;;;;;;8.73;6.10;;;;;;;9.85;89.69;63975.06;5049872;28;20218;-57
2023/04/21 02:57:32;;;;;;;6.87;5.60;;;;;;;10.06;89.95;63998.00;5049676;28;20560;-56
2023/04/21 02:59:57;;;;;;;6.47;4.70;;;;;;;10.17;91.17;64008.97;5049710;28;20292;-56
2023/04/21 03:02:23;;;;;;;18.17;9.60;;;;;;;10.23;92.93;64015.53;5049478;28;20195;-58
2023/04/21 03:04:48;;;;;;;17.23;11.80;;;;;;;10.28;94.36;64024.06;5049492;28;20210;-57
2023/04/21 03:07:14;;;;;;;14.97;11.07;;;;;;;10.19;94.27;64011.16;5052319;28;20186;-57
2023/04/21 03:09:40;;;;;;;15.97;9.87;;;;;;;10.09;93.82;64003.28;5052867;28;20275;-57
2023/04/21 03:12:05;;;;;;;19.90;11.43;;;;;;;10.02;96.06;63990.56;5052916;28;20640;-57
2023/04/21 03:14:31;;;;;;;16.23;10.00;;;;;;;10.03;94.30;63994.75;5052638;28;20221;-57
2023/04/21 03:16:56;;;;;;;10.40;7.93;;;;;;;9.94;91.59;63984.88;5052862;28;20225;-55
2023/04/21 03:19:21;;;;;;;11.50;7.53;;;;;;;9.82;91.51;63971.78;5052834;28;20247;-57
2023/04/21 03:21:48;;;;;;;10.07;7.47;;;;;;;9.80;91.45;63971.53;5052797;28;20192;-56
2023/04/21 03:24:13;;;;;;;10.17;7.03;;;;;;;9.88;91.71;63978.31;5052725;28;20209;-56
2023/04/21 03:26:42;;;;;;;13.37;7.53;;;;;;;10.07;92.68;63996.59;5053107;28;20616;-55
2023/04/21 03:29:07;;;;;;;22.27;12.23;;;;;;;10.27;93.18;64017.41;5053038;28;20240;-56
2023/04/21 03:31:33;;;;;;;17.67;11.63;;;;;;;10.20;93.78;64017.84;5052723;28;20648;-57
2023/04/21 03:33:58;;;;;;;19.40;12.00;;;;;;;9.92;95.82;63982.16;5052554;28;20305;-56
2023/04/21 03:36:24;;;;;;;21.57;13.43;;;;;;;9.87;96.17;63976.69;5052659;28;20683;-56
2023/04/21 03:38:49;;;;;;;18.53;12.20;;;;;;;9.84;96.90;63973.41;5052687;28;20300;-55
2023/04/21 03:41:14;;;;;;;20.73;12.73;;;;;;;9.72;97.26;63963.34;5052629;28;20667;-55
2023/04/21 03:43:40;;;;;;;21.07;12.40;;;;;;;9.58;98.25;63948.03;5052846;28;20295;-58
2023/04/21 03:46:05;;;;;;;18.97;12.20;;;;;;;9.50;98.66;63939.28;5052406;28;20674;-58
2023/04/21 03:48:31;;;;;;;20.40;12.37;;;;;;;9.52;98.29;63938.97;5052523;28;20298;-60
2023/04/21 03:50:56;;;;;;;25.10;16.17;;;;;;;9.52;97.66;63938.41;5052290;28;20557;-58
2023/04/21 03:53:22;;;;;;;33.77;19.90;;;;;;;9.50;99.13;63941.81;5052188;28;20618;-58
2023/04/21 03:55:50;;;;;;;26.63;15.97;;;;;;;9.44;99.68;63934.69;5034274;28;20186;-58
2023/04/21 03:58:16;;;;;;;29.07;18.07;;;;;;;9.54;100.00;63943.66;5052242;28;20251;-58
2023/04/21 04:00:41;;;;;;;23.63;15.37;;;;;;;9.69;98.68;63955.03;5052494;28;20181;-56
2023/04/21 04:03:07;;;;;;;25.67;12.33;;;;;;;9.51;99.38;63937.88;5034461;28;20221;-57
2023/04/21 04:05:34;;;;;;;16.60;11.10;;;;;;;9.54;99.62;63943.09;5052297;28;20656;-55
2023/04/21 04:08:00;;;;;;;20.97;11.30;;;;;;;9.58;97.96;63948.03;5052264;28;20317;-56
2023/04/21 04:10:25;;;;;;;18.73;11.00;;;;;;;9.63;98.25;63948.47;5052209;28;20260;-56
2023/04/21 04:12:50;;;;;;;24.03;11.63;;;;;;;9.76;96.82;63967.72;5051956;28;20650;-56
2023/04/21 04:15:16;;;;;;;18.37;12.50;;;;;;;9.66;97.18;63956.78;5033296;28;20217;-57
2023/04/21 04:17:41;;;;;;;20.70;11.63;;;;;;;9.61;97.55;63948.25;5051147;28;20608;-59
2023/04/21 04:20:07;;;;;;;20.23;10.97;;;;;;;9.72;97.12;63960.84;5051851;28;20193;-58
2023/04/21 04:22:33;;;;;;;22.63;11.47;;;;;;;9.93;96.27;63983.81;5051894;28;20201;-57
2023/04/21 04:25:00;;;;;;;17.70;9.27;;;;;;;9.77;93.84;63965.75;5051924;28;20607;-57
2023/04/21 04:27:26;;;;;;;16.73;10.87;;;;;;;9.89;98.07;63981.94;5051800;28;20192;-57
2023/04/21 04:29:52;;;;;;;19.30;10.70;;;;;;;10.04;94.95;63995.84;5051844;28;20220;-57
2023/04/21 04:32:17;;;;;;;17.90;8.77;;;;;;;10.29;91.46;64022.09;5051671;28;20272;-56
2023/04/21 04:34:44;;;;;;;18.37;8.97;;;;;;;10.34;89.92;64030.09;5051672;28;20221;-57
2023/04/21 04:37:10;;;;;;;12.33;8.87;;;;;;;10.49;88.96;64046.50;5051741;28;20228;-58
2023/04/21 04:39:36;;;;;;;17.13;9.10;;;;;;;10.83;88.44;64079.25;5051769;28;20641;-55
2023/04/21 04:42:02;;;;;;;11.97;8.70;;;;;;;10.72;85.73;64069.19;5051571;28;20186;-56
2023/04/21 04:44:28;;;;;;;13.60;9.13;;;;;;;11.02;87.12;64104.53;5033846;28;20228;-56
2023/04/21 04:46:55;;;;;;;11.80;7.80;;;;;;;10.76;86.38;64074.13;5051578;28;20189;-56
2023/04/21 04:49:21;;;;;;;15.17;9.13;;;;;;;11.04;88.17;64103.66;5033672;28;20258;-57
2023/04/21 04:51:46;;;;;;;22.60;12.53;;;;;;;11.17;88.90;64118.44;5051368;28;20629;-56
2023/04/21 04:54:11;;;;;;;23.63;12.77;;;;;;;11.18;89.85;64117.03;5050170;28;20221;-57
2023/04/21 04:56:37;;;;;;;27.43;14.03;;;;;;;11.10;90.86;64110.78;5051351;28;20635;-56
2023/04/21 04:59:02;;;;;;;25.97;13.10;;;;;;;11.07;90.01;64110.00;5051624;28;20224;-58
2023/04/21 05:01:29;;;;;;;23.67;13.00;;;;;;;10.77;92.48;64075.19;5051447;28;20196;-58
2023/04/21 05:03:56;;;;;;;21.07;12.83;;;;;;;10.79;91.89;64079.34;5051230;28;20240;-58
2023/04/21 05:06:22;;;;;;;20.80;13.27;;;;;;;11.08;92.59;64108.59;5050385;28;20189;-58
2023/04/21 05:08:47;;;;;;;22.27;13.30;;;;;;;10.83;92.21;64084.28;5051091;28;20249;-56
2023/04/21 05:11:13;;;;;;;17.80;11.80;;;;;;;10.79;93.18;64079.91;5051131;28;20213;-57
2023/04/21 05:13:38;;;;;;;19.20;12.03;;;;;;;11.04;92.13;64103.66;5051173;28;20214;-59
2023/04/21 05:16:04;;;;;;;15.40;10.47;;;;;;;11.06;89.67;64108.94;5051517;28;20181;-58
2023/04/21 05:18:30;;;;;;;18.23;10.40;;;;;;;11.27;88.14;64128.88;5033076;28;20296;-57
2023/04/21 05:20:55;;;;;;;17.77;10.23;;;;;;;11.36;87.33;64141.22;5050994;28;20774;-56
2023/04/21 05:23:21;;;;;;;14.77;9.80;;;;;;;11.45;86.73;64149.09;5050851;28;20214;-58
2023/04/21 05:25:46;;;;;;;17.73;9.43;;;;;;;11.61;85.93;64169.19;5051138;28;20195;-55
2023/04/21 05:28:12;;;;;;;13.57;9.57;;;;;;;11.80;84.25;64186.94;5050576;28;20749;-56
2023/04/21 05:30:37;;;;;;;18.13;12.27;;;;;;;11.86;84.03;64190.47;5050883;28;20196;-58
2023/04/21 05:33:02;;;;;;;13.60;9.77;;;;;;;11.94;84.33;64202.28;5051064;28;20209;-57
2023/04/21 05:35:32;;;;;;;16.40;10.77;;;;;;;11.87;85.52;64194.06;5050864;28;20209;-59
2023/04/21 05:37:57;;;;;;;23.00;10.80;;;;;;;12.07;84.23;64214.00;5050763;28;20293;-59
2023/04/21 05:40:23;;;;;;;15.13;10.33;;;;;;;11.92;85.93;64202.09;5033133;28;20217;-58
2023/04/21 05:42:48;;;;;;;16.03;9.13;;;;;;;12.15;83.61;64225.31;5049968;28;20626;-59
2023/04/21 05:45:14;;;;;;;23.87;11.00;;;;;;;12.28;83.30;64239.03;5050892;28;20224;-58
2023/04/21 05:47:39;;;;;;;22.90;10.40;;;;;;;12.28;83.59;64239.03;5032373;28;20182;-58
2023/04/21 05:50:06;;;;;;;19.50;10.13;;;;;;;12.55;81.38;64269.16;5050724;28;20702;-58
2023/04/21 05:52:32;;;;;;;15.50;10.60;;;;;;;12.62;79.73;64276.84;5049912;28;20663;-59
2023/04/21 05:55:01;;;;;;;12.33;7.00;;;;;;;12.40;78.23;64252.19;5032838;28;20216;-60
2023/04/21 05:57:26;;;;;;;10.80;7.50;;;;;;;12.61;78.46;64273.22;5049767;28;20189;-59
2023/04/21 05:59:52;;;;;;;14.73;7.43;;;;;;;12.11;77.96;64220.38;5050391;28;20575;-60
2023/04/21 06:02:17;;;;;;;7.63;6.67;;;;;;;11.92;78.06;64202.63;5049862;28;20200;-60
2023/04/21 06:04:43;;;;;;;14.27;7.60;;;;;;;11.95;78.68;64202.84;5031914;28;20210;-59
2023/04/21 06:07:12;;;;;;;11.87;6.83;;;;;;;12.17;78.28;64230.03;5032972;28;20268;-59
2023/04/21 06:09:38;;;;;;;12.17;7.90;;;;;;;12.33;77.43;64241.97;5050207;28;20308;-58
2023/04/21 06:12:04;;;;;;;12.40;8.10;;;;;;;12.46;79.44;64258.75;5050546;28;20269;-63
2023/04/21 06:14:29;;;;;;;12.90;7.17;;;;;;;12.20;77.52;64230.25;5050207;28;20217;-58
2023/04/21 06:16:55;;;;;;;11.60;6.33;;;;;;;12.02;78.27;64211.06;5049738;28;20667;-61
2023/04/21 06:19:20;;;;;;;11.33;7.17;;;;;;;12.37;78.35;64251.41;5050698;28;20213;-57
2023/04/21 06:21:46;;;;;;;8.87;6.77;;;;;;;12.27;78.13;64235.94;5049864;28;20667;-59
2023/04/21 06:24:11;;;;;;;10.07;6.33;;;;;;;12.25;78.09;64238.81;5050123;28;20205;-60
2023/04/21 06:26:36;;;;;;;8.70;6.67;;;;;;;12.25;77.76;64236.28;5050224;28;20682;-58
2023/04/21 06:29:02;;;;;;;13.33;6.70;;;;;;;12.09;77.91;64221.25;5050412;28;20245;-59
2023/04/21 06:31:27;;;;;;;9.93;6.23;;;;;;;12.12;78.00;64224.00;5050336;28;20209;-60
2023/04/21 06:33:53;;;;;;;13.20;7.23;;;;;;;12.14;78.19;64223.66;5050317;28;20221;-59
2023/04/21 06:36:20;;;;;;;11.70;7.30;;;;;;;12.31;78.07;64242.84;5050055;28;20632;-59
2023/04/21 06:38:46;;;;;;;11.77;8.83;;;;;;;12.49;77.65;64259.50;5050055;28;20212;-58
2023/04/21 06:41:11;;;;;;;8.80;6.87;;;;;;;12.36;77.18;64247.78;5051346;28;20274;-59
2023/04/21 06:43:36;;;;;;;11.57;6.70;;;;;;;12.23;77.80;64234.09;5053643;28;20687;-58
2023/04/21 06:46:02;;;;;;;9.77;7.10;;;;;;;12.01;79.33;64209.41;5053026;28;20213;-58
2023/04/21 06:48:29;;;;;;;8.53;6.27;;;;;;;12.23;78.64;64233.53;5035490;28;20245;-59
2023/04/21 06:50:54;;;;;;;13.10;7.23;;;;;;;12.43;78.00;64255.47;5053216;28;20218;-57
2023/04/21 06:53:20;;;;;;;10.57;7.30;;;;;;;12.58;77.61;64272.44;5035311;28;20213;-58
2023/04/21 06:55:46;;;;;;;15.83;8.07;;;;;;;12.78;77.03;64290.78;5053102;28;20251;-58
2023/04/21 06:58:12;;;;;;;10.77;6.43;;;;;;;12.91;75.80;64307.56;5053226;28;20311;-57
2023/04/21 07:00:37;;;;;;;12.87;6.50;;;;;;;12.84;75.54;64299.88;5052602;28;20690;-59
2023/04/21 07:03:03;;;;;;;11.43;6.57;;;;;;;12.70;75.88;64282.56;5053442;28;20213;-56
2023/04/21 07:05:29;;;;;;;9.30;6.63;;;;;;;12.76;75.63;64289.13;5053241;28;20276;-55
2023/04/21 07:07:58;;;;;;;8.23;6.00;;;;;;;12.71;75.95;64283.09;5053255;28;20244;-57
2023/04/21 07:10:24;;;;;;;9.20;6.27;;;;;;;12.56;76.54;64270.25;5052065;28;20201;-57
2023/04/21 07:12:50;;;;;;;7.57;6.33;;;;;;;12.38;76.95;64249.97;5052817;28;20185;-56
2023/04/21 07:15:16;;;;;;;10.93;7.00;;;;;;;12.50;77.02;64261.16;5052443;28;20250;-55
2023/04/21 07:17:41;;;;;;;10.77;6.30;;;;;;;12.76;75.61;64288.56;5053110;28;20206;-56
2023/04/21 07:20:07;;;;;;;10.23;6.73;;;;;;;13.04;74.56;64322.41;5053177;28;20572;-55
2023/04/21 07:22:34;;;;;;;8.40;6.33;;;;;;;13.06;74.23;64324.59;5052944;28;20202;-55
2023/04/21 07:25:01;;;;;;;11.27;5.97;;;;;;;13.22;74.05;64339.63;5053124;28;20185;-57
2023/04/21 07:27:26;;;;;;;9.87;6.43;;;;;;;13.38;73.03;64357.19;5052232;28;20185;-57
2023/04/21 07:29:52;;;;;;;10.47;5.97;;;;;;;13.39;73.45;64360.81;5052725;28;20579;-57
2023/04/21 07:32:17;;;;;;;8.93;6.20;;;;;;;13.31;72.26;64352.00;5052647;28;20216;-57
2023/04/21 07:34:45;;;;;;;11.40;6.30;;;;;;;13.45;73.19;64369.91;5052742;28;20241;-57
2023/04/21 07:37:11;;;;;;;8.43;6.10;;;;;;;13.55;72.07;64377.81;5052532;28;20189;-59
2023/04/21 07:39:36;;;;;;;12.83;5.40;;;;;;;13.88;71.89;64414.06;5052172;28;20660;-60
2023/04/21 07:42:02;;;;;;;8.03;5.80;;;;;;;13.75;71.01;64399.22;5052583;28;20185;-57
2023/04/21 07:44:28;;;;;;;7.17;6.33;;;;;;;14.17;70.27;64445.34;5052424;28;20244;-58
2023/04/21 07:46:54;;;;;;;7.10;6.03;;;;;;;14.53;68.76;64484.94;5052679;28;20217;-58
2023/04/21 07:49:19;;;;;;;8.57;5.28;;;;;;;14.38;67.42;64471.00;5034277;28;20362;-58
2023/04/21 07:51:45;;;;;;;8.27;5.55;;;;;;;14.30;67.69;64459.66;5051890;28;20186;-58
2023/04/21 07:54:10;;;;;;;9.90;5.72;;;;;;;14.30;68.25;64462.22;5033992;28;20209;-58
2023/04/21 07:56:36;;;;;;;10.95;6.97;;;;;;;14.42;67.94;64472.84;5052544;28;20255;-55
2023/04/21 07:59:01;;;;;;;7.68;5.18;;;;;;;14.76;67.37;64507.13;5052409;28;20210;-56
2023/04/21 08:01:27;;;;;;;10.07;5.45;;;;;;;14.26;67.37;64455.78;5052381;28;20246;-58
2023/04/21 08:03:52;;;;;;;8.07;5.45;;;;;;;14.07;68.31;64434.38;5052180;28;20733;-55
2023/04/21 08:06:18;;;;;;;9.80;4.57;;;;;;;14.34;67.97;64463.50;5052304;28;20254;-56
2023/04/21 08:08:43;;;;;;;8.50;5.38;;;;;;;14.52;67.07;64483.28;5052226;28;20236;-55
2023/04/21 08:11:08;;;;;;;8.70;5.13;;;;;;;14.52;66.00;64483.84;5051957;28;20194;-55
2023/04/21 08:13:34;;;;;;;11.88;5.45;;;;;;;14.64;64.95;64494.50;5052251;28;20221;-57
2023/04/21 08:16:00;;;;;;;7.72;5.70;;;;;;;14.55;65.27;64487.13;5067423;28;20673;-56
2023/04/21 08:18:25;;;;;;;8.38;4.93;;;;;;;14.35;65.77;64465.16;5052116;28;20355;-56
2023/04/21 08:20:51;;;;;;;7.28;5.75;;;;;;;14.35;65.35;64462.63;5051868;28;20724;-55
2023/04/21 08:23:17;;;;;;;8.40;5.72;;;;;;;14.43;66.31;64470.84;5033677;28;20263;-57
2023/04/21 08:25:42;;;;;;;12.40;5.87;;;;;;;14.67;65.60;64500.31;5051939;28;20231;-57
2023/04/21 08:28:08;;;;;;;8.75;6.20;;;;;;;14.89;65.19;64521.41;5051811;28;20216;-56
2023/04/21 08:30:33;;;;;;;7.63;5.90;;;;;;;15.06;64.23;64540.66;5051760;28;20650;-55
2023/04/21 08:32:59;;;;;;;10.27;5.18;;;;;;;15.00;63.61;64533.50;5051634;28;20205;-56
2023/04/21 08:35:24;;;;;;;10.75;6.10;;;;;;;14.93;63.22;64525.81;5051603;28;20206;-55
2023/04/21 08:37:50;;;;;;;11.10;5.50;;;;;;;15.18;63.38;64553.28;5051515;28;20266;-55
2023/04/21 08:40:16;;;;;;;7.82;5.25;;;;;;;15.83;62.68;64624.25;5051640;28;20186;-57
2023/04/21 08:42:41;;;;;;;5.10;4.05;;;;;;;15.62;61.09;64601.16;5051590;28;20189;-56
2023/04/21 08:45:08;;;;;;;8.32;4.30;;;;;;;15.22;61.45;64560.22;5051556;28;20224;-58
2023/04/21 08:47:33;;;;;;;5.45;4.05;;;;;;;15.35;60.55;64571.44;5051600;28;20250;-54
2023/04/21 08:49:59;;;;;;;8.40;4.75;;;;;;;15.53;60.45;64591.81;5051620;28;20190;-56
2023/04/21 08:52:24;;;;;;;5.10;4.53;;;;;;;15.54;61.53;64592.91;5051393;28;20277;-56
2023/04/21 08:54:52;;;;;;;4.90;4.10;;;;;;;15.96;61.51;64638.56;5051836;28;20221;-60
2023/04/21 08:57:20;;;;;;;7.28;4.90;;;;;;;16.23;58.42;64665.72;5051577;28;20228;-56
2023/04/21 08:59:45;;;;;;;5.55;4.60;;;;;;;15.73;59.75;64615.81;5033400;28;20217;-55
2023/04/21 09:02:14;;;;;;;7.50;4.50;;;;;;;15.74;59.49;64620.00;5051402;28;20567;-56
2023/04/21 09:04:44;;;;;;;7.95;5.00;;;;;;;15.71;59.31;64611.63;5050574;28;20687;-56
2023/04/21 09:07:10;;;;;;;8.13;4.40;;;;;;;15.94;59.05;64636.34;5033349;28;20306;-59
2023/04/21 09:09:51;;;;;;;6.85;4.82;;;;;;;16.29;57.43;64676.88;5051202;28;20710;-59
2023/04/21 09:12:17;;;;;;;6.47;4.65;;;;;;;16.23;57.08;64668.28;5033161;28;20189;-58
2023/04/21 09:14:42;;;;;;;9.70;4.72;;;;;;;16.24;56.47;64668.84;5050916;28;20721;-59
2023/04/21 09:17:08;;;;;;;8.68;4.65;;;;;;;16.57;57.32;64707.72;5033433;28;20212;-60
2023/04/21 09:19:33;;;;;;;8.30;4.70;;;;;;;17.12;56.37;64765.19;5051065;28;20821;-59
2023/04/21 09:22:00;;;;;;;6.07;4.70;;;;;;;16.83;54.93;64731.25;5051070;28;20584;-59
2023/04/21 09:24:26;;;;;;;7.90;3.58;;;;;;;16.23;54.54;64667.72;5051349;28;20220;-60
2023/04/21 09:26:52;;;;;;;8.65;4.35;;;;;;;15.93;56.90;64637.81;5051041;28;20190;-59
2023/04/21 09:29:23;;;;;;;6.93;3.78;;;;;;;16.03;55.70;64648.81;5050677;28;20331;-59
2023/04/21 09:31:49;;;;;;;6.63;4.78;;;;;;;16.12;57.01;64656.16;5050931;28;20189;-59
2023/04/21 09:34:25;;;;;;;8.77;4.88;;;;;;;15.98;58.37;64640.75;5050761;28;20222;-59
2023/04/21 09:37:02;;;;;;;6.03;4.32;;;;;;;16.04;57.33;64646.81;5050870;28;20188;-58
2023/04/21 09:39:31;;;;;;;7.45;4.63;;;;;;;16.28;57.09;64673.78;5050753;28;20219;-59
2023/04/21 09:41:58;;;;;;;7.53;4.55;;;;;;;16.03;56.22;64646.25;5050931;28;20706;-59
2023/04/21 09:44:27;;;;;;;8.52;3.95;;;;;;;16.36;55.47;64679.50;5032941;28;20209;-58
2023/04/21 09:47:03;;;;;;;8.38;4.57;;;;;;;16.62;54.85;64710.69;5050647;28;20240;-58
2023/04/21 09:49:30;;;;;;;7.78;3.42;;;;;;;16.89;53.13;64737.84;5050897;28;20690;-58
2023/04/21 09:51:59;;;;;;;7.18;3.58;;;;;;;16.83;53.87;64735.81;5050507;28;20197;-59
2023/04/21 09:54:30;;;;;;;8.00;4.13;;;;;;;16.66;53.24;64712.53;5050764;28;20213;-59
2023/04/21 09:56:58;;;;;;;5.55;3.47;;;;;;;17.07;51.27;64759.69;5032822;28;20186;-59
2023/04/21 09:59:28;;;;;;;7.75;3.85;;;;;;;17.47;50.54;64803.75;5050880;28;20221;-58
2023/04/21 10:01:55;;;;;;;4.10;3.47;;;;;;;16.94;51.03;64743.38;5050442;28;20189;-59
2023/04/21 10:04:22;;;;;;;4.38;3.38;;;;;;;16.84;51.04;64734.91;5050195;28;20237;-58
2023/04/21 10:06:48;;;;;;;8.45;3.55;;;;;;;16.80;51.54;64730.50;5050239;28;20751;-58
2023/04/21 10:09:17;;;;;;;4.78;3.67;;;;;;;16.46;51.82;64695.59;5050245;28;20210;-57
2023/04/21 10:11:42;;;;;;;4.78;3.05;;;;;;;16.47;52.10;64694.69;5065647;28;20243;-58
2023/04/21 10:14:08;;;;;;;8.85;4.18;;;;;;;16.63;51.89;64714.31;5050026;28;20293;-58
2023/04/21 10:16:37;;;;;;;8.40;4.05;;;;;;;16.69;51.30;64724.03;5052027;28;20679;-59
2023/04/21 10:19:22;;;;;;;3.47;3.05;;;;;;;16.88;51.77;64741.31;5053795;28;20269;-58
2023/04/21 10:21:49;;;;;;;5.15;4.10;;;;;;;17.25;52.77;64782.59;5054077;28;20193;-56
2023/04/21 10:24:14;;;;;;;6.78;3.65;;;;;;;17.58;52.03;64816.44;5053800;28;20206;-58
2023/04/21 10:26:40;;;;;;;9.18;4.20;;;;;;;17.19;52.92;64776.00;5053888;28;20211;-57
2023/04/21 10:29:08;;;;;;;9.05;4.65;;;;;;;17.21;54.76;64775.66;5054089;28;20266;-58
2023/04/21 10:31:50;;;;;;;8.80;4.40;;;;;;;17.01;53.94;64753.09;5053591;28;20552;-57
2023/04/21 10:34:21;;;;;;;4.90;4.13;;;;;;;17.56;53.07;64816.78;5053949;28;20266;-58
2023/04/21 10:36:55;;;;;;;5.85;3.90;;;;;;;17.88;53.23;64850.94;5053823;28;20197;-57
2023/04/21 10:39:27;;;;;;;5.40;4.72;;;;;;;18.19;51.26;64883.16;5053586;28;20303;-57
2023/04/21 10:42:19;;;;;;;6.82;5.32;;;;;;;17.89;50.62;64850.06;5053681;28;20246;-56
2023/04/21 10:44:57;;;;;;;6.00;4.57;;;;;;;17.52;52.61;64811.84;5053611;28;20266;-56
2023/04/21 10:47:51;;;;;;;7.47;5.07;;;;;;;17.16;54.06;64769.59;5053306;28;20255;-55
2023/04/21 10:50:22;;;;;;;8.60;4.07;;;;;;;17.59;53.86;64817.53;5051401;28;20258;-57
2023/04/21 10:53:08;;;;;;;5.10;4.60;;;;;;;18.30;51.78;64895.28;5053723;28;20202;-56
2023/04/21 10:55:34;;;;;;;10.20;5.10;;;;;;;17.73;51.10;64829.88;5053427;28;20283;-56
2023/04/21 10:58:06;;;;;;;5.00;3.95;;;;;;;16.87;51.87;64738.19;5053465;28;20217;-57
2023/04/21 11:00:32;;;;;;;5.38;3.83;;;;;;;16.13;53.32;64659.81;5053184;28;20189;-57
2023/04/21 11:03:02;;;;;;;5.03;3.53;;;;;;;15.99;53.41;64641.88;5071843;22;20709;-60
2023/04/21 11:05:37;;;;;;;6.57;3.42;;;;;;;15.73;53.71;64613.25;5073279;28;20689;-59
2023/04/21 11:08:08;;;;;;;6.60;3.80;;;;;;;15.71;53.81;64611.63;5069231;28;20278;-60
2023/04/21 11:10:44;;;;;;;5.60;3.72;;;;;;;15.70;53.44;64609.94;5053109;28;20221;-59
2023/04/21 11:13:10;;;;;;;4.13;3.72;;;;;;;16.04;53.04;64649.91;5052968;28;20213;-60
2023/04/21 11:15:35;;;;;;;5.13;3.72;;;;;;;16.89;50.16;64739.88;5053096;28;20225;-58
2023/04/21 11:18:02;;;;;;;6.55;3.65;;;;;;;17.58;50.33;64815.91;5052794;28;20263;-58
2023/04/21 11:20:28;;;;;;;6.53;3.70;;;;;;;17.65;49.28;64823.06;5035083;28;20717;-59
2023/04/21 11:22:55;;;;;;;5.57;4.25;;;;;;;17.24;52.49;64780.97;5052895;28;20217;-59
2023/04/21 11:25:21;;;;;;;6.72;3.80;;;;;;;17.15;54.38;64769.03;5052737;28;20197;-59